Flight Track Log - Related Links

Times and Time Zones

All times are in EDT time to prevent confusion due to time zone crossing. See the N779AZ flight status page for this flight to view local times or setup timezone preferences in your user account.

Time Position Orientation Groundspeed Altitude Reporting Facility
EDT Latitude Longitude Course Direction KTS MPH feet Rate Location/Type
Mon 01:59:08 PM 42.7000 -71.1333 216° Southwest 145 167 1,100  Level KA90
Mon 01:59:56 PM 42.6667 -71.1667 216° Southwest 200 230 2,000 706 Climbing KA90
Mon 02:00:50 PM 42.6333 -71.2167 228° Southwest 228 262 2,300 1,684 Climbing KA90
Mon 02:01:50 PM 42.5672 -71.2506 201° Southwest 266 306 5,200 3,350 Climbing Boston Center
Mon 02:02:50 PM 42.5028 -71.2686 192° South 259 298 9,000 2,500 Climbing Boston Center
Mon 02:04:02 PM 42.4283 -71.3319 212° Southwest 283 326 10,700 2,875 Climbing Boston Center
Mon 02:06:02 PM 42.3492 -71.5719 246° West 436 502 18,200 2,933 Climbing Boston Center
Mon 02:07:02 PM 42.3292 -71.6931 257° West 359 413 19,500 1,650 Climbing Boston Center
Mon 02:08:02 PM 42.3092 -71.8169 258° West 345 397 21,500 2,050 Climbing Boston Center
Mon 02:09:02 PM 42.2889 -71.9406 258° West 340 391 23,600 1,850 Climbing Boston Center
Mon 02:10:02 PM 42.2683 -72.0614 257° West 335 386 25,200 1,450 Climbing Boston Center
Mon 02:11:02 PM 42.2481 -72.1906 258° West 341 392 26,500 1,300 Climbing Boston Center
Mon 02:12:02 PM 42.2272 -72.3225 258° West 353 406 27,800 1,250 Climbing Boston Center
Mon 02:13:02 PM 42.2044 -72.4569 257° West 358 412 29,000 1,250 Climbing Boston Center
Mon 02:14:02 PM 42.1814 -72.5858 256° West 358 412 30,300 1,150 Climbing Boston Center
Mon 02:15:02 PM 42.1606 -72.6950 256° West 363 418 31,300 1,136 Climbing Boston Center
Mon 02:16:14 PM 42.0933 -72.8317 236° Southwest 363 418 32,800 1,227 Climbing Boston Center
Mon 02:17:14 PM 42.0219 -72.9514 231° Southwest 363 418 34,000 1,150 Climbing Boston Center
Mon 02:18:14 PM 41.9506 -73.0653 230° Southwest 382 440 35,100 850 Climbing Boston Center
Mon 02:19:14 PM 41.8628 -73.1369 211° Southwest 382 440 35,700 450 Climbing Boston Center
Mon 02:20:14 PM 41.7519 -73.1664 191° South 382 440 36,000 150 Climbing Boston Center
Mon 02:21:14 PM 41.6700 -73.2628 221° Southwest 388 447 36,000  Level Boston Center
Mon 02:22:14 PM 41.6044 -73.3839 234° Southwest 382 440 36,000  Level Boston Center
Mon 02:23:54 PM 41.4989 -73.5825 235° Southwest 412 474 36,000  Level New York Center
Mon 02:24:54 PM 41.4292 -73.7097 234° Southwest 423 487 36,000  Level New York Center
Mon 02:25:55 PM 41.3614 -73.8311 233° Southwest 423 487 36,000  Level New York Center
Mon 02:26:53 PM 41.2917 -73.9522 233° Southwest 423 487 36,000  Level New York Center
Mon 02:27:54 PM 41.2300 -74.0678 235° Southwest 423 487 36,000  Level New York Center
Mon 02:28:55 PM 41.1600 -74.1883 232° Southwest 423 487 36,000  Level New York Center
Mon 02:29:55 PM 41.0811 -74.3219 232° Southwest 423 487 36,000  Level New York Center
Mon 02:30:56 PM 41.0150 -74.4450 235° Southwest 423 487 36,000  Level New York Center
Mon 02:31:53 PM 40.9442 -74.5703 233° Southwest 423 487 36,000  Level New York Center
Mon 02:32:54 PM 40.8803 -74.6819 233° Southwest 423 487 36,000  Level New York Center
Mon 02:33:55 PM 40.8094 -74.8039 233° Southwest 423 487 36,000  Level New York Center
Mon 02:34:55 PM 40.7486 -74.9347 238° Southwest 423 487 36,000  Level New York Center
Mon 02:35:55 PM 40.6875 -75.0678 239° Southwest 423 487 36,000  Level New York Center
Mon 02:36:54 PM 40.6286 -75.1981 239° Southwest 423 487 36,000  Level New York Center
Mon 02:37:54 PM 40.5694 -75.3308 240° Southwest 423 487 36,000  Level New York Center
Mon 02:38:55 PM 40.5100 -75.4633 239° Southwest 423 487 36,000  Level New York Center
Mon 02:39:56 PM 40.4486 -75.5928 238° Southwest 416 479 36,000  Level New York Center
Mon 02:40:55 PM 40.3911 -75.7225 240° Southwest 416 479 36,000  Level New York Center
Mon 02:41:56 PM 40.3292 -75.8514 238° Southwest 416 479 36,000  Level New York Center
Mon 02:42:53 PM 40.2672 -75.9828 238° Southwest 421 484 36,000  Level New York Center
Mon 02:43:54 PM 40.2006 -76.1219 238° Southwest 424 488 36,000  Level New York Center
Mon 02:45:59 PM 40.0775 -76.3939 239° Southwest 435 501 36,000  Level Washington Center
Mon 02:46:58 PM 40.0269 -76.5017 239° Southwest 435 501 36,000  Level Washington Center
Mon 02:47:58 PM 39.9547 -76.6525 238° Southwest 440 506 36,000  Level Washington Center
Mon 02:48:59 PM 39.8869 -76.7894 237° Southwest 440 506 36,000  Level Washington Center
Mon 02:50:00 PM 39.8250 -76.9233 239° Southwest 434 499 36,000  Level Washington Center
Mon 02:50:58 PM 39.7761 -77.0250 238° Southwest 429 494 36,000  Level Washington Center
Mon 02:51:59 PM 39.7031 -77.1828 239° Southwest 424 488 36,000  Level Washington Center
Mon 02:53:00 PM 39.6431 -77.3108 239° Southwest 424 488 36,000  Level Washington Center
Mon 02:54:00 PM 39.5786 -77.4439 238° Southwest 424 488 36,000  Level Washington Center
Mon 02:54:59 PM 39.5181 -77.5742 239° Southwest 424 488 36,000  Level Washington Center
Mon 02:55:59 PM 39.4556 -77.7042 238° Southwest 424 488 36,000  Level Washington Center
Mon 02:57:00 PM 39.3950 -77.8314 238° Southwest 424 488 36,000  Level Washington Center
Mon 02:57:58 PM 39.3400 -77.9719 243° Southwest 424 488 36,000  Level Washington Center
Mon 02:58:58 PM 39.2831 -78.1067 241° Southwest 429 494 36,000  Level Washington Center
Mon 03:00:00 PM 39.2281 -78.2442 243° Southwest 429 494 36,000  Level Washington Center
Mon 03:01:00 PM 39.1750 -78.3789 243° Southwest 429 494 36,000  Level Washington Center
Mon 03:02:00 PM 39.1197 -78.5158 243° Southwest 429 494 36,000  Level Washington Center
Mon 03:02:58 PM 39.0642 -78.6525 242° Southwest 429 494 36,000  Level Washington Center
Mon 03:03:58 PM 39.0106 -78.7894 243° Southwest 429 494 36,000  Level Washington Center
Mon 03:04:59 PM 38.9547 -78.9231 242° Southwest 429 494 36,000  Level Washington Center
Mon 03:06:00 PM 38.9011 -79.0567 243° Southwest 429 494 36,000  Level Washington Center
Mon 03:06:58 PM 38.8469 -79.1928 243° Southwest 429 494 36,000  Level Washington Center
Mon 03:07:59 PM 38.8206 -79.3114 254° West 429 494 36,000  Level Washington Center
Mon 03:08:59 PM 38.7897 -79.4936 258° West 434 499 36,000  Level Washington Center
Mon 03:10:00 PM 38.7639 -79.6386 257° West 451 519 36,000  Level Washington Center
Mon 03:11:00 PM 38.7333 -79.8047 257° West 451 519 36,000  Level Washington Center
Mon 03:11:58 PM 38.7050 -79.9547 256° West 451 519 36,000  Level Washington Center
Mon 03:13:09 PM 38.6689 -80.1311 255° West 441 507 36,000  Level Indianapolis Center
Mon 03:14:11 PM 38.6397 -80.2847 256° West 443 510 36,000  Level Indianapolis Center
Mon 03:15:13 PM 38.6117 -80.4364 257° West 440 506 36,000  Level Indianapolis Center
Mon 03:16:15 PM 38.5836 -80.5878 257° West 437 503 36,000  Level Indianapolis Center
Mon 03:17:17 PM 38.5542 -80.7403 256° West 440 506 36,000  Level Indianapolis Center
Mon 03:18:18 PM 38.5247 -80.8919 256° West 438 504 36,000  Level Indianapolis Center
Mon 03:19:20 PM 38.4950 -81.0408 256° West 433 498 36,000  Level Indianapolis Center
Mon 03:20:22 PM 38.4647 -81.1928 256° West 437 503 36,000  Level Indianapolis Center
Mon 03:21:24 PM 38.4289 -81.3733 256° West 433 498 36,000  Level Indianapolis Center
Mon 03:22:26 PM 38.3983 -81.5256 256° West 437 503 36,000  Level Indianapolis Center
Mon 03:23:27 PM 38.3689 -81.6750 256° West 431 496 36,000  Level Indianapolis Center
Mon 03:24:29 PM 38.3358 -81.8217 254° West 428 493 36,000  Level Indianapolis Center
Mon 03:25:31 PM 38.2953 -81.9619 250° West 422 486 36,000  Level Indianapolis Center
Mon 03:26:33 PM 38.2547 -82.1036 250° West 425 489 36,000  Level Indianapolis Center
Mon 03:27:35 PM 38.2161 -82.2444 251° West 422 486 36,000  Level Indianapolis Center
Mon 03:28:36 PM 38.1764 -82.3850 250° West 422 486 36,000  Level Indianapolis Center
Mon 03:29:38 PM 38.1297 -82.5492 250° West 420 483 36,000  Level Indianapolis Center
Mon 03:30:40 PM 38.0886 -82.6864 249° West 416 479 36,000  Level Indianapolis Center
Mon 03:31:42 PM 38.0489 -82.8267 250° West 420 483 36,000  Level Indianapolis Center
Mon 03:32:44 PM 38.0086 -82.9692 250° West 427 491 36,000  Level Indianapolis Center
Mon 03:33:46 PM 37.9667 -83.1083 249° West 424 488 36,000  Level Indianapolis Center
Mon 03:34:47 PM 37.9267 -83.2503 250° West 426 490 36,000  Level Indianapolis Center
Mon 03:35:49 PM 37.8778 -83.4122 249° West 422 486 36,000  Level Indianapolis Center
Mon 03:36:51 PM 37.8356 -83.5514 249° West 424 488 36,000  Level Indianapolis Center
Mon 03:37:53 PM 37.7953 -83.6892 250° West 421 484 36,000  Level Indianapolis Center
Mon 03:38:55 PM 37.7528 -83.8283 249° West 423 487 36,000  Level Indianapolis Center
Mon 03:39:57 PM 37.7108 -83.9683 249° West 427 491 36,000  Level Indianapolis Center
Mon 03:40:58 PM 37.6608 -84.1292 249° West 424 488 36,000  Level Indianapolis Center
Mon 03:42:00 PM 37.6186 -84.2697 249° West 427 491 36,000  Level Indianapolis Center
Mon 03:43:02 PM 37.5750 -84.4114 249° West 434 499 36,000  Level Indianapolis Center
Mon 03:44:04 PM 37.5314 -84.5517 249° West 431 496 36,000  Level Indianapolis Center
Mon 03:45:06 PM 37.4919 -84.6839 249° West 407 468 36,000  Level Indianapolis Center
Mon 03:46:07 PM 37.4489 -84.8122 247° West 399 459 36,000  Level Indianapolis Center
Mon 03:47:09 PM 37.3981 -84.9575 246° West 390 449 36,000  Level Indianapolis Center
Mon 03:48:11 PM 37.3686 -85.0869 254° West 386 444 36,000  Level Indianapolis Center
Mon 03:49:13 PM 37.3253 -85.2125 247° West 388 447 36,000  Level Indianapolis Center
Mon 03:50:15 PM 37.2847 -85.3431 249° West 397 457 36,000  Level Indianapolis Center
Mon 03:51:17 PM 37.2425 -85.4775 249° West 408 470 36,000  Level Indianapolis Center
Mon 03:52:18 PM 37.1983 -85.6136 248° West 416 479 36,000  Level Indianapolis Center
Mon 03:53:20 PM 37.1547 -85.7489 248° West 415 478 36,000  Level Indianapolis Center
Mon 03:54:22 PM 37.1108 -85.8856 248° West 418 481 36,000  Level Indianapolis Center
Mon 03:55:24 PM 37.0600 -86.0433 248° West 416 479 36,000  Level Indianapolis Center
Mon 03:56:25 PM 37.0158 -86.1783 248° West 417 480 36,000  Level Indianapolis Center
Mon 03:57:27 PM 36.9706 -86.3131 247° West 417 480 36,000  Level Indianapolis Center
Mon 03:58:20 PM 36.9361 -86.4247 249° West 420 483 36,000  Level Memphis Center
Mon 03:59:20 PM 36.8778 -86.5572 241° Southwest 425 489 36,000  Level Memphis Center
Mon 04:00:20 PM 36.8175 -86.7000 242° Southwest 431 496 36,000  Level Memphis Center
Mon 04:01:20 PM 36.7586 -86.8297 240° Southwest 431 496 36,000  Level Memphis Center
Mon 04:02:20 PM 36.7042 -86.9614 243° Southwest 431 496 36,000  Level Memphis Center
Mon 04:03:20 PM 36.6450 -87.0881 240° Southwest 426 490 36,000  Level Memphis Center
Mon 04:04:20 PM 36.5878 -87.2197 242° Southwest 426 490 36,000  Level Memphis Center
Mon 04:05:20 PM 36.5286 -87.3486 240° Southwest 426 490 36,000  Level Memphis Center
Mon 04:06:20 PM 36.4711 -87.4769 241° Southwest 431 496 36,000  Level Memphis Center
Mon 04:07:20 PM 36.4136 -87.6056 241° Southwest 431 496 36,000 -150 Level Memphis Center
Mon 04:08:20 PM 36.3558 -87.7311 240° Southwest 416 479 35,700 -500 Descending Memphis Center
Mon 04:09:20 PM 36.2961 -87.8592 240° Southwest 431 496 35,000 -700 Descending Memphis Center
Mon 04:10:20 PM 36.2400 -87.9844 241° Southwest 431 496 34,300 -500 Descending Memphis Center
Mon 04:11:20 PM 36.1881 -88.0992 241° Southwest 398 458 34,000 -1,200 Descending Memphis Center
Mon 04:12:20 PM 36.1417 -88.1956 239° Southwest 383 441 31,900 -2,550 Descending Memphis Center
Mon 04:13:20 PM 36.0833 -88.3153 239° Southwest 390 449 28,900 -2,950 Descending Memphis Center
Mon 04:14:20 PM 36.0208 -88.4503 240° Southwest 404 465 26,000 -2,500 Descending Memphis Center
Mon 04:15:20 PM 35.9603 -88.5772 240° Southwest 415 478 23,900 -1,450 Descending Memphis Center
Mon 04:16:20 PM 35.9014 -88.7067 241° Southwest 431 496 23,100 -500 Descending Memphis Center
Mon 04:17:20 PM 35.8406 -88.8358 240° Southwest 431 496 22,900 -1,150 Descending Memphis Center
Mon 04:18:20 PM 35.7836 -88.9547 239° Southwest 431 496 20,800 -2,250 Descending Memphis Center
Mon 04:19:20 PM 35.7306 -89.0631 239° Southwest 408 470 18,400 -2,350 Descending Memphis Center
Mon 04:20:20 PM 35.6689 -89.1508 229° Southwest 383 441 16,100 -2,400 Descending Memphis Center
Mon 04:21:20 PM 35.5969 -89.2464 227° Southwest 377 434 13,600 -2,000 Descending Memphis Center
Mon 04:22:20 PM 35.5286 -89.3314 225° Southwest 359 413 12,100 -1,350 Descending Memphis Center
Mon 04:23:20 PM 35.4583 -89.4114 223° Southwest 354 407 10,900 -1,350 Descending Memphis Center
Mon 04:24:20 PM 35.3839 -89.4683 212° Southwest 326 375 9,400 -1,650 Descending Memphis Center
Mon 04:25:20 PM 35.3217 -89.5197 214° Southwest 295 339 7,600 -1,600 Descending Memphis Center
Mon 04:26:20 PM 35.2572 -89.5714 213° Southwest 279 321 6,200 -1,350 Descending Memphis Center
Mon 04:27:20 PM 35.1908 -89.6228 212° Southwest 271 312 4,900 -1,100 Descending Memphis Center
Mon 04:28:20 PM 35.1306 -89.6742 215° Southwest 266 306 4,000 -750 Descending Memphis Center
Mon 04:29:20 PM 35.0808 -89.7303 223° Southwest 259 298 3,400 -1,050 Descending Memphis Center
Mon 04:30:20 PM 35.0603 -89.8117 253° West 254 292 1,900 -850 Descending Memphis Center
Mon 04:31:20 PM 35.0586 -89.8803 268° West 236 272 1,700 -474 Descending Memphis Center
Mon 04:32:14 PM 35.0500 -89.9167 254° West 136 157 1,000 -727 Descending KMEM
Mon 04:32:59 PM 35.0500 -89.9500 270° West 123 142 500 -667 Descending KMEM
Mon 04:36:00 PM 35.0333 -89.9667 345° North  Level FlightAware Approximate
Mon 04:43:00 PM 35.0424 -89.9767 345° North  Level Estimated
Mon 04:44:00 PM 35.0424 -89.9767 345° North  Level Estimated
Mon 04:45:00 PM 35.0424 -89.9767 345° North  Level Estimated
Mon 04:46:00 PM 35.0424 -89.9767 345° North  Level Estimated
Mon 04:47:00 PM 35.0424 -89.9767 345° North  Level Estimated
Mon 04:48:00 PM 35.0424 -89.9767 345° North  Level Estimated
Mon 04:49:00 PM 35.0424 -89.9767 345° North  Level Estimated
Mon 04:50:00 PM 35.0424 -89.9767 345° North  Level Estimated
Mon 04:51:00 PM 35.0424 -89.9767 345° North  Level Estimated
Mon 04:52:00 PM 35.0424 -89.9767 345° North  Level Estimated
Mon 04:53:00 PM 35.0424 -89.9767 345° North  Level Estimated

Login

Don't have an account? Register now (free) for customized features, flight alerts, and more!